sensor_id;sensor_type;location;lat;lon;timestamp;temperature;humidity
62476;DHT22;50739;45.670;11.936;2023-03-11T00:01:45;11.90;85.76
62476;DHT22;50739;45.670;11.936;2023-03-11T00:06:46;11.90;85.92
62476;DHT22;50739;45.670;11.936;2023-03-11T00:11:48;11.75;86.34
62476;DHT22;50739;45.670;11.936;2023-03-11T00:16:51;11.72;86.26
62476;DHT22;50739;45.670;11.936;2023-03-11T00:21:53;11.71;86.42
62476;DHT22;50739;45.670;11.936;2023-03-11T00:26:56;11.65;86.74
62476;DHT22;50739;45.670;11.936;2023-03-11T00:31:59;11.76;86.25
62476;DHT22;50739;45.670;11.936;2023-03-11T00:37:01;11.69;86.52
62476;DHT22;50739;45.670;11.936;2023-03-11T00:42:03;11.67;86.46
62476;DHT22;50739;45.670;11.936;2023-03-11T00:47:08;11.79;85.74
62476;DHT22;50739;45.670;11.936;2023-03-11T00:52:10;11.76;86.40
62476;DHT22;50739;45.670;11.936;2023-03-11T00:57:11;11.74;86.26
62476;DHT22;50739;45.670;11.936;2023-03-11T01:02:15;11.55;86.75
62476;DHT22;50739;45.670;11.936;2023-03-11T01:07:17;11.54;86.94
62476;DHT22;50739;45.670;11.936;2023-03-11T01:12:19;11.42;87.33
62476;DHT22;50739;45.670;11.936;2023-03-11T01:17:22;11.35;87.72
62476;DHT22;50739;45.670;11.936;2023-03-11T01:22:24;11.30;87.84
62476;DHT22;50739;45.670;11.936;2023-03-11T01:27:26;11.11;88.38
62476;DHT22;50739;45.670;11.936;2023-03-11T01:32:30;11.14;88.39
62476;DHT22;50739;45.670;11.936;2023-03-11T01:37:32;10.97;88.39
62476;DHT22;50739;45.670;11.936;2023-03-11T01:42:34;10.75;88.78
62476;DHT22;50739;45.670;11.936;2023-03-11T01:47:40;10.83;88.55
62476;DHT22;50739;45.670;11.936;2023-03-11T01:52:43;10.86;88.86
62476;DHT22;50739;45.670;11.936;2023-03-11T01:57:46;10.80;88.27
62476;DHT22;50739;45.670;11.936;2023-03-11T02:02:51;10.88;88.49
62476;DHT22;50739;45.670;11.936;2023-03-11T02:07:54;10.84;88.62
62476;DHT22;50739;45.670;11.936;2023-03-11T02:12:56;10.86;88.73
62476;DHT22;50739;45.670;11.936;2023-03-11T02:18:01;10.72;89.15
62476;DHT22;50739;45.670;11.936;2023-03-11T02:23:04;10.65;89.41
62476;DHT22;50739;45.670;11.936;2023-03-11T02:28:10;10.66;89.23
62476;DHT22;50739;45.670;11.936;2023-03-11T02:33:13;10.56;89.57
62476;DHT22;50739;45.670;11.936;2023-03-11T02:38:16;10.51;89.63
62476;DHT22;50739;45.670;11.936;2023-03-11T02:43:23;10.48;89.83
62476;DHT22;50739;45.670;11.936;2023-03-11T02:48:26;10.44;89.74
62476;DHT22;50739;45.670;11.936;2023-03-11T02:53:31;10.52;89.14
62476;DHT22;50739;45.670;11.936;2023-03-11T02:58:35;10.45;89.49
62476;DHT22;50739;45.670;11.936;2023-03-11T03:03:37;10.47;89.15
62476;DHT22;50739;45.670;11.936;2023-03-11T03:08:38;10.18;89.50
62476;DHT22;50739;45.670;11.936;2023-03-11T03:13:42;10.25;89.12
62476;DHT22;50739;45.670;11.936;2023-03-11T03:18:44;10.38;88.25
62476;DHT22;50739;45.670;11.936;2023-03-11T03:23:46;10.37;88.20
62476;DHT22;50739;45.670;11.936;2023-03-11T03:28:49;10.35;88.21
62476;DHT22;50739;45.670;11.936;2023-03-11T03:33:51;10.06;89.19
62476;DHT22;50739;45.670;11.936;2023-03-11T03:38:54;10.03;89.11
62476;DHT22;50739;45.670;11.936;2023-03-11T03:43:57;10.04;89.13
62476;DHT22;50739;45.670;11.936;2023-03-11T03:48:59;9.91;89.41
62476;DHT22;50739;45.670;11.936;2023-03-11T03:54:01;9.97;89.02
62476;DHT22;50739;45.670;11.936;2023-03-11T03:59:04;10.03;88.72
62476;DHT22;50739;45.670;11.936;2023-03-11T04:04:05;10.03;88.21
62476;DHT22;50739;45.670;11.936;2023-03-11T04:09:08;9.96;88.43
62476;DHT22;50739;45.670;11.936;2023-03-11T04:14:13;9.87;88.36
62476;DHT22;50739;45.670;11.936;2023-03-11T04:19:14;10.01;88.52
62476;DHT22;50739;45.670;11.936;2023-03-11T04:24:16;9.85;88.92
62476;DHT22;50739;45.670;11.936;2023-03-11T04:29:20;9.80;88.69
62476;DHT22;50739;45.670;11.936;2023-03-11T04:34:21;9.89;88.16
62476;DHT22;50739;45.670;11.936;2023-03-11T04:39:23;9.87;87.89
62476;DHT22;50739;45.670;11.936;2023-03-11T04:44:26;9.87;87.47
62476;DHT22;50739;45.670;11.936;2023-03-11T04:49:28;9.85;87.84
62476;DHT22;50739;45.670;11.936;2023-03-11T04:54:30;9.80;88.07
62476;DHT22;50739;45.670;11.936;2023-03-11T04:59:34;9.89;87.60
62476;DHT22;50739;45.670;11.936;2023-03-11T05:04:36;9.89;87.66
62476;DHT22;50739;45.670;11.936;2023-03-11T05:09:37;9.99;87.66
62476;DHT22;50739;45.670;11.936;2023-03-11T05:14:41;9.94;87.23
62476;DHT22;50739;45.670;11.936;2023-03-11T05:19:43;9.83;87.28
62476;DHT22;50739;45.670;11.936;2023-03-11T05:24:44;9.86;87.22
62476;DHT22;50739;45.670;11.936;2023-03-11T05:29:48;9.85;87.11
62476;DHT22;50739;45.670;11.936;2023-03-11T05:34:50;9.86;87.03
62476;DHT22;50739;45.670;11.936;2023-03-11T05:39:52;9.72;87.75
62476;DHT22;50739;45.670;11.936;2023-03-11T05:44:56;9.79;86.79
62476;DHT22;50739;45.670;11.936;2023-03-11T05:49:58;9.71;87.10
62476;DHT22;50739;45.670;11.936;2023-03-11T05:54:59;9.65;86.88
62476;DHT22;50739;45.670;11.936;2023-03-11T06:00:04;9.31;87.37
62476;DHT22;50739;45.670;11.936;2023-03-11T06:05:11;9.32;87.56
62476;DHT22;50739;45.670;11.936;2023-03-11T06:10:13;9.25;86.91
62476;DHT22;50739;45.670;11.936;2023-03-11T06:15:16;9.34;87.05
62476;DHT22;50739;45.670;11.936;2023-03-11T06:20:18;9.36;86.50
62476;DHT22;50739;45.670;11.936;2023-03-11T06:25:20;9.46;86.64
62476;DHT22;50739;45.670;11.936;2023-03-11T06:30:24;9.41;86.52
62476;DHT22;50739;45.670;11.936;2023-03-11T06:35:26;9.62;85.98
62476;DHT22;50739;45.670;11.936;2023-03-11T06:40:28;9.66;86.15
62476;DHT22;50739;45.670;11.936;2023-03-11T06:45:31;9.75;85.88
62476;DHT22;50739;45.670;11.936;2023-03-11T06:50:33;9.53;86.23
62476;DHT22;50739;45.670;11.936;2023-03-11T06:55:35;9.83;85.20
62476;DHT22;50739;45.670;11.936;2023-03-11T07:00:38;9.90;85.49
62476;DHT22;50739;45.670;11.936;2023-03-11T07:05:40;10.09;85.66
62476;DHT22;50739;45.670;11.936;2023-03-11T07:10:42;10.16;85.60
62476;DHT22;50739;45.670;11.936;2023-03-11T07:15:45;10.14;85.39
62476;DHT22;50739;45.670;11.936;2023-03-11T07:20:47;10.17;85.36
62476;DHT22;50739;45.670;11.936;2023-03-11T07:25:49;10.34;85.01
62476;DHT22;50739;45.670;11.936;2023-03-11T07:30:54;10.61;85.14
62476;DHT22;50739;45.670;11.936;2023-03-11T07:35:55;10.91;85.04
62476;DHT22;50739;45.670;11.936;2023-03-11T07:58:47;11.78;83.88
62476;DHT22;50739;45.670;11.936;2023-03-11T08:03:51;12.00;84.08
62476;DHT22;50739;45.670;11.936;2023-03-11T08:08:56;12.19;83.46
62476;DHT22;50739;45.670;11.936;2023-03-11T08:14:00;12.34;83.80
62476;DHT22;50739;45.670;11.936;2023-03-11T08:19:02;12.51;83.99
62476;DHT22;50739;45.670;11.936;2023-03-11T08:24:05;12.68;83.42
62476;DHT22;50739;45.670;11.936;2023-03-11T08:29:08;12.85;83.60
62476;DHT22;50739;45.670;11.936;2023-03-11T08:34:11;13.07;82.20
62476;DHT22;50739;45.670;11.936;2023-03-11T08:39:13;13.00;82.23
62476;DHT22;50739;45.670;11.936;2023-03-11T08:44:17;13.03;82.69
62476;DHT22;50739;45.670;11.936;2023-03-11T08:49:19;13.05;83.11
62476;DHT22;50739;45.670;11.936;2023-03-11T08:54:20;13.32;82.88
62476;DHT22;50739;45.670;11.936;2023-03-11T08:59:24;13.60;81.71
62476;DHT22;50739;45.670;11.936;2023-03-11T09:04:25;13.77;80.93
62476;DHT22;50739;45.670;11.936;2023-03-11T09:09:27;13.79;80.88
62476;DHT22;50739;45.670;11.936;2023-03-11T09:14:30;14.08;79.41
62476;DHT22;50739;45.670;11.936;2023-03-11T09:19:32;14.19;78.51
62476;DHT22;50739;45.670;11.936;2023-03-11T09:24:35;14.15;79.11
62476;DHT22;50739;45.670;11.936;2023-03-11T09:29:38;14.32;78.51
62476;DHT22;50739;45.670;11.936;2023-03-11T09:34:40;14.65;77.04
62476;DHT22;50739;45.670;11.936;2023-03-11T09:39:42;14.65;77.05
62476;DHT22;50739;45.670;11.936;2023-03-11T09:44:52;14.80;76.50
62476;DHT22;50739;45.670;11.936;2023-03-11T09:50:05;14.87;76.28
62476;DHT22;50739;45.670;11.936;2023-03-11T09:55:23;14.88;76.41
62476;DHT22;50739;45.670;11.936;2023-03-11T10:00:29;14.95;76.04
62476;DHT22;50739;45.670;11.936;2023-03-11T10:05:31;15.09;75.77
62476;DHT22;50739;45.670;11.936;2023-03-11T10:10:37;15.28;74.99
62476;DHT22;50739;45.670;11.936;2023-03-11T10:15:47;15.35;74.65
62476;DHT22;50739;45.670;11.936;2023-03-11T10:20:54;15.46;73.62
62476;DHT22;50739;45.670;11.936;2023-03-11T10:26:03;15.56;73.37
62476;DHT22;50739;45.670;11.936;2023-03-11T10:31:19;15.63;72.31
62476;DHT22;50739;45.670;11.936;2023-03-11T10:36:23;15.66;72.94
62476;DHT22;50739;45.670;11.936;2023-03-11T10:41:30;15.80;72.40
62476;DHT22;50739;45.670;11.936;2023-03-11T10:46:34;15.78;71.28
62476;DHT22;50739;45.670;11.936;2023-03-11T10:51:36;15.87;70.76
62476;DHT22;50739;45.670;11.936;2023-03-11T10:56:41;15.81;70.76
62476;DHT22;50739;45.670;11.936;2023-03-11T11:02:01;15.81;69.61
62476;DHT22;50739;45.670;11.936;2023-03-11T11:07:28;15.70;69.38
62476;DHT22;50739;45.670;11.936;2023-03-11T11:12:30;15.66;68.40
62476;DHT22;50739;45.670;11.936;2023-03-11T11:17:33;15.71;69.00
62476;DHT22;50739;45.670;11.936;2023-03-11T11:22:35;15.76;68.92
62476;DHT22;50739;45.670;11.936;2023-03-11T11:27:37;15.80;68.85
62476;DHT22;50739;45.670;11.936;2023-03-11T11:32:44;15.77;69.38
62476;DHT22;50739;45.670;11.936;2023-03-11T11:37:49;15.87;70.12
62476;DHT22;50739;45.670;11.936;2023-03-11T11:42:53;15.95;69.68
62476;DHT22;50739;45.670;11.936;2023-03-11T11:48:00;16.19;68.40
62476;DHT22;50739;45.670;11.936;2023-03-11T11:53:14;16.16;68.58
62476;DHT22;50739;45.670;11.936;2023-03-11T11:58:18;16.04;68.85
62476;DHT22;50739;45.670;11.936;2023-03-11T12:03:43;16.18;69.20
62476;DHT22;50739;45.670;11.936;2023-03-11T12:08:56;16.22;67.83
62476;DHT22;50739;45.670;11.936;2023-03-11T12:14:09;16.41;67.55
62476;DHT22;50739;45.670;11.936;2023-03-11T12:19:25;16.55;67.19
62476;DHT22;50739;45.670;11.936;2023-03-11T12:24:50;16.60;66.62
62476;DHT22;50739;45.670;11.936;2023-03-11T12:30:20;16.67;66.38
62476;DHT22;50739;45.670;11.936;2023-03-11T12:41:28;16.70;66.48
62476;DHT22;50739;45.670;11.936;2023-03-11T12:46:59;16.83;66.62
62476;DHT22;50739;45.670;11.936;2023-03-11T12:52:19;17.01;65.46
62476;DHT22;50739;45.670;11.936;2023-03-11T12:57:40;17.18;65.65
62476;DHT22;50739;45.670;11.936;2023-03-11T13:08:34;17.63;64.90
62476;DHT22;50739;45.670;11.936;2023-03-11T13:19:52;18.94;61.94
62476;DHT22;50739;45.670;11.936;2023-03-11T13:25:28;19.66;59.59
62476;DHT22;50739;45.670;11.936;2023-03-11T13:36:01;20.35;58.44
62476;DHT22;50739;45.670;11.936;2023-03-11T13:41:15;20.41;57.80
62476;DHT22;50739;45.670;11.936;2023-03-11T13:46:25;20.06;58.04
62476;DHT22;50739;45.670;11.936;2023-03-11T13:51:34;20.28;57.84
62476;DHT22;50739;45.670;11.936;2023-03-11T13:56:43;20.45;57.14
62476;DHT22;50739;45.670;11.936;2023-03-11T14:01:49;19.93;58.69
62476;DHT22;50739;45.670;11.936;2023-03-11T14:06:52;20.31;58.22
62476;DHT22;50739;45.670;11.936;2023-03-11T14:12:02;20.41;57.44
62476;DHT22;50739;45.670;11.936;2023-03-11T14:17:05;20.55;55.84
62476;DHT22;50739;45.670;11.936;2023-03-11T14:22:13;20.38;54.90
62476;DHT22;50739;45.670;11.936;2023-03-11T14:27:17;20.17;55.87
62476;DHT22;50739;45.670;11.936;2023-03-11T14:32:25;20.41;54.02
62476;DHT22;50739;45.670;11.936;2023-03-11T14:37:31;20.21;53.27
62476;DHT22;50739;45.670;11.936;2023-03-11T14:42:37;20.24;53.09
62476;DHT22;50739;45.670;11.936;2023-03-11T14:47:44;20.28;52.77
62476;DHT22;50739;45.670;11.936;2023-03-11T14:52:50;20.44;52.53
62476;DHT22;50739;45.670;11.936;2023-03-11T14:57:57;20.42;52.70
62476;DHT22;50739;45.670;11.936;2023-03-11T15:03:10;20.56;51.90
62476;DHT22;50739;45.670;11.936;2023-03-11T15:08:18;20.61;52.34
62476;DHT22;50739;45.670;11.936;2023-03-11T15:13:23;20.55;51.24
62476;DHT22;50739;45.670;11.936;2023-03-11T15:18:28;20.51;52.05
62476;DHT22;50739;45.670;11.936;2023-03-11T15:23:33;20.69;51.51
62476;DHT22;50739;45.670;11.936;2023-03-11T15:28:37;20.67;51.33
62476;DHT22;50739;45.670;11.936;2023-03-11T15:33:40;20.65;52.05
62476;DHT22;50739;45.670;11.936;2023-03-11T15:38:41;20.59;51.58
62476;DHT22;50739;45.670;11.936;2023-03-11T15:43:46;20.55;51.51
62476;DHT22;50739;45.670;11.936;2023-03-11T15:48:48;20.51;52.70
62476;DHT22;50739;45.670;11.936;2023-03-11T15:53:56;20.44;52.24
62476;DHT22;50739;45.670;11.936;2023-03-11T15:58:59;20.28;52.67
62476;DHT22;50739;45.670;11.936;2023-03-11T16:04:01;20.44;51.45
62476;DHT22;50739;45.670;11.936;2023-03-11T16:09:03;19.90;53.11
62476;DHT22;50739;45.670;11.936;2023-03-11T16:14:09;19.24;55.02
62476;DHT22;50739;45.670;11.936;2023-03-11T16:19:15;18.72;56.41
62476;DHT22;50739;45.670;11.936;2023-03-11T16:24:18;18.51;57.45
62476;DHT22;50739;45.670;11.936;2023-03-11T16:29:22;18.25;57.94
62476;DHT22;50739;45.670;11.936;2023-03-11T16:34:26;18.04;58.05
62476;DHT22;50739;45.670;11.936;2023-03-11T16:39:28;17.83;58.04
62476;DHT22;50739;45.670;11.936;2023-03-11T16:44:31;17.65;58.17
62476;DHT22;50739;45.670;11.936;2023-03-11T16:49:33;17.40;59.17
62476;DHT22;50739;45.670;11.936;2023-03-11T16:54:35;17.22;60.34
62476;DHT22;50739;45.670;11.936;2023-03-11T16:59:57;16.95;61.58
62476;DHT22;50739;45.670;11.936;2023-03-11T17:05:06;16.95;62.06
62476;DHT22;50739;45.670;11.936;2023-03-11T17:10:11;16.71;63.04
62476;DHT22;50739;45.670;11.936;2023-03-11T17:15:16;16.62;63.84
62476;DHT22;50739;45.670;11.936;2023-03-11T17:20:18;16.48;64.35
62476;DHT22;50739;45.670;11.936;2023-03-11T17:25:23;16.39;64.54
62476;DHT22;50739;45.670;11.936;2023-03-11T17:30:32;16.29;64.96
62476;DHT22;50739;45.670;11.936;2023-03-11T17:35:42;16.15;65.37
62476;DHT22;50739;45.670;11.936;2023-03-11T17:40:44;15.97;66.30
62476;DHT22;50739;45.670;11.936;2023-03-11T17:45:47;16.01;66.02
62476;DHT22;50739;45.670;11.936;2023-03-11T17:50:49;15.84;66.49
62476;DHT22;50739;45.670;11.936;2023-03-11T17:55:51;15.74;66.73
62476;DHT22;50739;45.670;11.936;2023-03-11T18:00:54;15.56;67.09
62476;DHT22;50739;45.670;11.936;2023-03-11T18:05:57;15.44;67.41
62476;DHT22;50739;45.670;11.936;2023-03-11T18:11:01;15.38;67.37
62476;DHT22;50739;45.670;11.936;2023-03-11T18:16:07;15.22;67.67
62476;DHT22;50739;45.670;11.936;2023-03-11T18:21:11;15.13;67.87
62476;DHT22;50739;45.670;11.936;2023-03-11T18:26:15;15.02;68.13
62476;DHT22;50739;45.670;11.936;2023-03-11T18:31:20;14.99;68.14
62476;DHT22;50739;45.670;11.936;2023-03-11T18:36:24;14.74;69.06
62476;DHT22;50739;45.670;11.936;2023-03-11T18:41:29;14.61;69.49
62476;DHT22;50739;45.670;11.936;2023-03-11T18:46:32;14.73;68.86
62476;DHT22;50739;45.670;11.936;2023-03-11T18:51:35;14.54;69.67
62476;DHT22;50739;45.670;11.936;2023-03-11T18:56:36;14.43;69.83
62476;DHT22;50739;45.670;11.936;2023-03-11T19:01:40;14.33;70.23
62476;DHT22;50739;45.670;11.936;2023-03-11T19:06:42;14.25;70.27
62476;DHT22;50739;45.670;11.936;2023-03-11T19:11:44;14.18;70.47
62476;DHT22;50739;45.670;11.936;2023-03-11T19:16:47;14.18;70.19
62476;DHT22;50739;45.670;11.936;2023-03-11T19:21:53;14.12;70.55
62476;DHT22;50739;45.670;11.936;2023-03-11T19:26:55;14.15;70.42
62476;DHT22;50739;45.670;11.936;2023-03-11T19:31:58;13.97;70.84
62476;DHT22;50739;45.670;11.936;2023-03-11T19:37:00;13.89;71.38
62476;DHT22;50739;45.670;11.936;2023-03-11T19:42:02;13.86;71.43
62476;DHT22;50739;45.670;11.936;2023-03-11T19:47:05;13.77;71.24
62476;DHT22;50739;45.670;11.936;2023-03-11T19:52:07;13.86;71.26
62476;DHT22;50739;45.670;11.936;2023-03-11T19:57:09;13.89;71.28
62476;DHT22;50739;45.670;11.936;2023-03-11T20:02:15;14.04;70.85
62476;DHT22;50739;45.670;11.936;2023-03-11T20:07:17;13.98;71.14
62476;DHT22;50739;45.670;11.936;2023-03-11T20:12:19;13.86;71.42
62476;DHT22;50739;45.670;11.936;2023-03-11T20:17:23;13.82;71.70
62476;DHT22;50739;45.670;11.936;2023-03-11T20:22:24;13.71;72.30
62476;DHT22;50739;45.670;11.936;2023-03-11T20:27:26;13.68;72.21
62476;DHT22;50739;45.670;11.936;2023-03-11T20:32:30;13.58;72.43
62476;DHT22;50739;45.670;11.936;2023-03-11T20:37:32;13.51;72.68
62476;DHT22;50739;45.670;11.936;2023-03-11T20:42:33;13.48;73.06
62476;DHT22;50739;45.670;11.936;2023-03-11T20:47:37;13.34;73.56
62476;DHT22;50739;45.670;11.936;2023-03-11T20:52:39;13.19;73.98
62476;DHT22;50739;45.670;11.936;2023-03-11T20:57:41;13.12;74.20
62476;DHT22;50739;45.670;11.936;2023-03-11T21:02:44;13.32;73.55
62476;DHT22;50739;45.670;11.936;2023-03-11T21:07:47;13.51;72.57
62476;DHT22;50739;45.670;11.936;2023-03-11T21:12:49;13.67;70.16
62476;DHT22;50739;45.670;11.936;2023-03-11T21:17:52;13.79;68.94
62476;DHT22;50739;45.670;11.936;2023-03-11T21:22:54;13.81;68.40
62476;DHT22;50739;45.670;11.936;2023-03-11T21:27:56;13.81;67.47
62476;DHT22;50739;45.670;11.936;2023-03-11T21:32:59;13.64;67.53
62476;DHT22;50739;45.670;11.936;2023-03-11T21:38:01;13.75;65.94
62476;DHT22;50739;45.670;11.936;2023-03-11T21:43:03;13.63;65.89
62476;DHT22;50739;45.670;11.936;2023-03-11T21:48:06;13.47;64.80
62476;DHT22;50739;45.670;11.936;2023-03-11T21:53:10;13.60;63.52
62476;DHT22;50739;45.670;11.936;2023-03-11T21:58:12;13.54;63.45
62476;DHT22;50739;45.670;11.936;2023-03-11T22:03:15;13.53;62.68
62476;DHT22;50739;45.670;11.936;2023-03-11T22:08:19;13.58;60.72
62476;DHT22;50739;45.670;11.936;2023-03-11T22:13:21;13.53;60.70
62476;DHT22;50739;45.670;11.936;2023-03-11T22:18:24;13.43;60.05
62476;DHT22;50739;45.670;11.936;2023-03-11T22:23:26;13.44;60.30
62476;DHT22;50739;45.670;11.936;2023-03-11T22:28:30;13.50;59.77
62476;DHT22;50739;45.670;11.936;2023-03-11T22:33:33;13.39;60.68
62476;DHT22;50739;45.670;11.936;2023-03-11T22:38:36;13.17;62.74
62476;DHT22;50739;45.670;11.936;2023-03-11T22:43:45;13.15;63.82
62476;DHT22;50739;45.670;11.936;2023-03-11T22:48:49;13.22;64.51
62476;DHT22;50739;45.670;11.936;2023-03-11T22:53:50;13.16;65.71
62476;DHT22;50739;45.670;11.936;2023-03-11T22:58:52;13.10;66.51
62476;DHT22;50739;45.670;11.936;2023-03-11T23:03:56;13.09;67.33
62476;DHT22;50739;45.670;11.936;2023-03-11T23:08:59;13.00;67.95
62476;DHT22;50739;45.670;11.936;2023-03-11T23:14:05;13.06;68.15
62476;DHT22;50739;45.670;11.936;2023-03-11T23:19:09;13.15;68.37
62476;DHT22;50739;45.670;11.936;2023-03-11T23:24:11;13.16;68.81
62476;DHT22;50739;45.670;11.936;2023-03-11T23:29:12;13.12;68.90
62476;DHT22;50739;45.670;11.936;2023-03-11T23:34:16;13.09;69.12
62476;DHT22;50739;45.670;11.936;2023-03-11T23:39:18;13.03;69.12
62476;DHT22;50739;45.670;11.936;2023-03-11T23:44:19;13.20;68.54
62476;DHT22;50739;45.670;11.936;2023-03-11T23:49:23;13.06;69.02
62476;DHT22;50739;45.670;11.936;2023-03-11T23:54:26;13.05;69.13
62476;DHT22;50739;45.670;11.936;2023-03-11T23:59:28;12.99;69.15
